createdAt,value
2023-02-15T00:00:58.512Z,0.00
2023-02-15T00:01:59.495Z,0.00
2023-02-15T00:02:58.578Z,0.00
2023-02-15T00:03:58.490Z,0.00
2023-02-15T00:04:58.471Z,0.00
2023-02-15T00:05:58.539Z,0.00
2023-02-15T00:06:59.381Z,0.00
2023-02-15T00:07:58.446Z,0.00
2023-02-15T00:08:58.439Z,0.00
2023-02-15T00:09:58.413Z,0.00
2023-02-15T00:10:58.413Z,0.00
2023-02-15T00:11:58.382Z,0.00
2023-02-15T00:12:59.304Z,0.00
2023-02-15T00:13:58.348Z,0.00
2023-02-15T00:14:58.349Z,0.00
2023-02-15T00:15:58.501Z,0.00
2023-02-15T00:16:58.326Z,0.00
2023-02-15T00:17:59.251Z,0.00
2023-02-15T00:18:58.314Z,0.00
2023-02-15T00:19:58.313Z,0.00
2023-02-15T00:20:58.259Z,0.00
2023-02-15T00:21:58.271Z,0.00
2023-02-15T00:22:59.169Z,0.00
2023-02-15T00:23:58.236Z,0.00
2023-02-15T00:24:58.241Z,0.00
2023-02-15T00:25:58.334Z,0.00
2023-02-15T00:26:58.202Z,0.00
2023-02-15T00:27:58.177Z,0.00
2023-02-15T00:28:59.101Z,0.00
2023-02-15T00:29:58.194Z,0.00
2023-02-15T00:30:58.220Z,0.00
2023-02-15T00:31:58.138Z,0.00
2023-02-15T00:32:58.110Z,0.00
2023-02-15T00:33:58.203Z,0.00
2023-02-15T00:34:59.003Z,0.00
2023-02-15T00:35:58.210Z,0.00
2023-02-15T00:36:58.073Z,0.00
2023-02-15T00:37:58.052Z,0.00
2023-02-15T00:38:58.031Z,0.00
2023-02-15T00:39:59.006Z,0.00
2023-02-15T00:40:58.020Z,0.00
2023-02-15T00:41:58.029Z,0.00
2023-02-15T00:42:57.995Z,0.00
2023-02-15T00:43:57.994Z,0.00
2023-02-15T00:44:58.922Z,0.00
2023-02-15T00:46:56.854Z,0.00
2023-02-15T00:47:56.826Z,0.00
2023-02-15T00:48:56.805Z,0.00
2023-02-15T00:49:56.828Z,0.00
2023-02-15T00:50:57.736Z,0.00
2023-02-15T00:51:56.789Z,0.00
2023-02-15T00:52:56.757Z,0.00
2023-02-15T00:53:56.758Z,0.00
2023-02-15T00:54:56.764Z,0.00
2023-02-15T00:55:57.672Z,0.00
2023-02-15T00:56:56.767Z,0.00
2023-02-15T00:57:56.722Z,0.00
2023-02-15T00:58:58.361Z,0.00
2023-02-15T00:59:56.675Z,0.00
2023-02-15T01:00:56.687Z,0.00
2023-02-15T01:01:57.598Z,0.00
2023-02-15T01:02:56.678Z,0.00
2023-02-15T01:03:56.668Z,0.00
2023-02-15T01:04:56.614Z,0.00
2023-02-15T01:05:56.625Z,0.00
2023-02-15T01:06:57.516Z,0.00
2023-02-15T01:07:56.590Z,0.00
2023-02-15T01:08:56.589Z,0.00
2023-02-15T01:09:56.544Z,0.00
2023-02-15T01:10:56.539Z,0.00
2023-02-15T01:11:56.539Z,0.00
2023-02-15T01:12:57.474Z,0.00
2023-02-15T01:13:56.541Z,0.00
2023-02-15T01:14:56.486Z,0.00
2023-02-15T01:15:56.525Z,0.00
2023-02-15T01:16:56.505Z,0.00
2023-02-15T01:17:56.461Z,0.00
2023-02-15T01:18:57.397Z,0.00
2023-02-15T01:19:56.440Z,0.00
2023-02-15T01:20:56.414Z,0.00
2023-02-15T01:21:56.418Z,0.00
2023-02-15T01:22:56.438Z,0.00
2023-02-15T01:23:56.383Z,0.00
2023-02-15T01:24:57.293Z,0.00
2023-02-15T01:25:56.383Z,0.00
2023-02-15T01:26:56.349Z,0.00
2023-02-15T01:27:56.342Z,0.00
2023-02-15T01:28:56.333Z,0.00
2023-02-15T01:29:57.297Z,0.00
2023-02-15T01:30:56.363Z,0.00
2023-02-15T01:31:56.358Z,0.00
2023-02-15T01:32:56.289Z,0.00
2023-02-15T01:33:56.265Z,0.00
2023-02-15T01:34:56.289Z,0.00
2023-02-15T01:35:57.159Z,0.00
2023-02-15T01:36:56.229Z,0.00
2023-02-15T01:37:56.219Z,0.00
2023-02-15T01:38:56.207Z,0.00
2023-02-15T01:39:56.175Z,0.00
2023-02-15T01:40:57.104Z,0.00
2023-02-15T01:41:56.144Z,0.00
2023-02-15T01:42:56.154Z,0.00
2023-02-15T01:43:56.154Z,0.00
2023-02-15T01:44:56.105Z,0.00
2023-02-15T01:45:57.052Z,0.00
2023-02-15T01:46:56.133Z,0.00
2023-02-15T01:47:56.079Z,0.00
2023-02-15T01:48:56.055Z,0.00
2023-02-15T01:49:56.067Z,0.00
2023-02-15T01:50:56.087Z,0.00
2023-02-15T01:51:57.001Z,0.00
2023-02-15T01:52:56.028Z,0.00
2023-02-15T01:53:55.995Z,0.00
2023-02-15T01:54:56.006Z,0.00
2023-02-15T01:55:55.976Z,0.00
2023-02-15T01:56:55.964Z,0.00
2023-02-15T01:57:56.880Z,0.00
2023-02-15T01:58:55.934Z,0.00
2023-02-15T01:59:55.938Z,0.00
2023-02-15T02:00:55.907Z,0.00
2023-02-15T02:01:55.932Z,0.00
2023-02-15T02:03:24.538Z,0.00
2023-02-15T02:03:55.889Z,0.00
2023-02-15T02:04:55.881Z,0.00
2023-02-15T02:05:55.864Z,0.00
2023-02-15T02:06:55.849Z,0.00
2023-02-15T02:07:56.737Z,0.00
2023-02-15T02:08:55.821Z,0.00
2023-02-15T02:09:55.824Z,0.00
2023-02-15T02:10:55.792Z,0.00
2023-02-15T02:11:55.777Z,0.00
2023-02-15T02:12:55.756Z,0.00
2023-02-15T02:13:56.689Z,0.00
2023-02-15T02:14:55.740Z,0.00
2023-02-15T02:15:55.783Z,0.00
2023-02-15T02:16:55.799Z,0.00
2023-02-15T02:17:55.715Z,0.00
2023-02-15T02:18:55.696Z,0.00
2023-02-15T02:19:56.610Z,0.00
2023-02-15T02:20:55.666Z,0.00
2023-02-15T02:21:55.670Z,0.00
2023-02-15T02:22:55.636Z,0.00
2023-02-15T02:23:55.614Z,0.00
2023-02-15T02:24:56.524Z,0.00
2023-02-15T02:25:55.586Z,0.00
2023-02-15T02:26:55.588Z,0.00
2023-02-15T02:27:55.587Z,0.00
2023-02-15T02:28:55.557Z,0.00
2023-02-15T02:29:55.609Z,0.00
2023-02-15T02:30:56.523Z,0.00
2023-02-15T02:31:55.585Z,0.00
2023-02-15T02:32:55.537Z,0.00
2023-02-15T02:33:55.495Z,0.00
2023-02-15T02:34:55.485Z,0.00
2023-02-15T02:35:56.406Z,0.00
2023-02-15T02:36:55.458Z,0.00
2023-02-15T02:37:55.447Z,0.00
2023-02-15T02:38:55.455Z,0.00
2023-02-15T02:39:55.416Z,0.00
2023-02-15T02:40:56.337Z,0.00
2023-02-15T02:41:55.424Z,0.00
2023-02-15T02:42:55.377Z,0.00
2023-02-15T02:43:55.372Z,0.00
2023-02-15T02:44:55.379Z,0.00
2023-02-15T02:45:56.265Z,0.00
2023-02-15T02:46:55.329Z,0.00
2023-02-15T02:47:55.359Z,0.00
2023-02-15T02:48:55.305Z,0.00
2023-02-15T02:49:55.294Z,0.00
2023-02-15T02:50:55.274Z,0.00
2023-02-15T02:51:56.192Z,0.00
2023-02-15T02:52:55.259Z,0.00
2023-02-15T02:53:55.244Z,0.00
2023-02-15T02:54:55.239Z,0.00
2023-02-15T02:55:55.225Z,0.00
2023-02-15T02:56:55.205Z,0.00
2023-02-15T02:57:56.143Z,0.00
2023-02-15T02:58:55.175Z,0.00
2023-02-15T02:59:55.144Z,0.00
2023-02-15T03:00:55.167Z,0.00
2023-02-15T03:01:55.171Z,0.00
2023-02-15T03:02:56.082Z,0.00
2023-02-15T03:03:55.125Z,0.00
2023-02-15T03:04:55.082Z,0.00
2023-02-15T03:05:55.104Z,0.00
2023-02-15T03:06:55.061Z,0.00
2023-02-15T03:07:55.068Z,0.00
2023-02-15T03:08:55.964Z,0.00
2023-02-15T03:09:55.044Z,0.00
2023-02-15T03:10:55.041Z,0.00
2023-02-15T03:11:55.002Z,0.00
2023-02-15T03:12:55.007Z,0.00
2023-02-15T03:13:54.971Z,0.00
2023-02-15T03:14:55.897Z,0.00
2023-02-15T03:15:55.006Z,0.00
2023-02-15T03:16:54.949Z,0.00
2023-02-15T03:17:54.948Z,0.00
2023-02-15T03:18:54.936Z,0.00
2023-02-15T03:19:55.850Z,0.00
2023-02-15T03:20:54.881Z,0.00
2023-02-15T03:21:54.937Z,0.00
2023-02-15T03:22:54.897Z,0.00
2023-02-15T03:23:54.854Z,0.00
2023-02-15T03:24:54.841Z,0.00
2023-02-15T03:25:55.783Z,0.00
2023-02-15T03:26:54.817Z,0.00
2023-02-15T03:27:54.804Z,0.00
2023-02-15T03:28:54.804Z,0.00
2023-02-15T03:29:54.821Z,0.00
2023-02-15T03:30:55.759Z,0.00
2023-02-15T03:31:54.910Z,0.00
2023-02-15T03:32:54.749Z,0.00
2023-02-15T03:33:54.751Z,0.00
2023-02-15T03:34:54.762Z,0.00
2023-02-15T03:35:55.637Z,0.00
2023-02-15T03:36:54.705Z,0.00
2023-02-15T03:37:54.680Z,0.00
2023-02-15T03:38:54.682Z,0.00
2023-02-15T03:39:54.683Z,0.00
2023-02-15T03:40:54.643Z,0.00
2023-02-15T03:41:55.567Z,0.00
2023-02-15T03:42:54.602Z,0.00
2023-02-15T03:43:54.599Z,0.00
2023-02-15T03:44:54.615Z,0.00
2023-02-15T03:45:54.574Z,0.00
2023-02-15T03:46:55.592Z,0.00
2023-02-15T03:47:54.553Z,0.00
2023-02-15T03:48:54.543Z,0.00
2023-02-15T03:49:54.530Z,0.00
2023-02-15T03:50:54.541Z,0.00
2023-02-15T03:52:00.729Z,0.00
2023-02-15T03:52:54.520Z,0.00
2023-02-15T03:53:54.460Z,0.00
2023-02-15T03:54:54.469Z,0.00
2023-02-15T03:55:54.451Z,0.00
2023-02-15T03:56:54.443Z,0.00
2023-02-15T03:57:55.373Z,0.00
2023-02-15T03:58:54.414Z,0.00
2023-02-15T03:59:54.402Z,0.00
2023-02-15T04:00:54.415Z,0.00
2023-02-15T04:01:54.371Z,0.00
2023-02-15T04:02:55.306Z,0.00
2023-02-15T04:03:54.337Z,0.00
2023-02-15T04:04:54.328Z,0.00
2023-02-15T04:05:54.356Z,0.00
2023-02-15T04:06:54.310Z,0.00
2023-02-15T04:07:54.288Z,0.00
2023-02-15T04:08:55.232Z,0.00
2023-02-15T04:09:54.321Z,0.00
2023-02-15T04:10:54.277Z,0.00
2023-02-15T04:11:54.241Z,0.00
2023-02-15T04:12:54.274Z,0.00
2023-02-15T04:13:55.146Z,0.00
2023-02-15T04:14:54.347Z,0.00
2023-02-15T04:15:54.188Z,0.00
2023-02-15T04:16:54.196Z,0.00
2023-02-15T04:17:54.184Z,0.00
2023-02-15T04:18:55.094Z,0.00
2023-02-15T04:19:54.123Z,0.00
2023-02-15T04:20:54.113Z,0.00
2023-02-15T04:21:54.112Z,0.00
2023-02-15T04:22:54.126Z,0.00
2023-02-15T04:23:55.025Z,0.00
2023-02-15T04:24:54.086Z,0.00
2023-02-15T04:25:54.074Z,0.00
2023-02-15T04:26:54.068Z,0.00
2023-02-15T04:27:54.050Z,0.00
2023-02-15T04:28:54.943Z,0.00
2023-02-15T04:29:54.043Z,0.00
2023-02-15T04:30:54.024Z,0.00
2023-02-15T04:31:54.134Z,0.00
2023-02-15T04:32:53.983Z,0.00
2023-02-15T04:33:53.970Z,0.00
2023-02-15T04:34:54.884Z,0.00
2023-02-15T04:35:53.929Z,0.00
2023-02-15T04:36:53.929Z,0.00
2023-02-15T04:37:53.912Z,0.00
2023-02-15T04:38:53.904Z,0.00
2023-02-15T04:39:54.811Z,0.00
2023-02-15T04:40:53.855Z,0.00
2023-02-15T04:41:53.927Z,0.00
2023-02-15T04:42:53.870Z,0.00
2023-02-15T04:43:53.902Z,0.00
2023-02-15T04:44:54.766Z,0.00
2023-02-15T04:45:54.764Z,0.00
2023-02-15T04:46:53.807Z,0.00
2023-02-15T04:47:53.802Z,0.00
2023-02-15T04:48:53.824Z,0.00
2023-02-15T04:49:53.773Z,0.00
2023-02-15T04:50:53.724Z,0.00
2023-02-15T04:51:54.667Z,0.00
2023-02-15T04:52:53.712Z,0.00
2023-02-15T04:53:53.709Z,0.00
2023-02-15T04:54:53.693Z,0.00
2023-02-15T04:55:53.678Z,0.00
2023-02-15T04:56:54.602Z,0.00
2023-02-15T04:57:53.665Z,0.00
2023-02-15T04:58:53.647Z,0.00
2023-02-15T04:59:53.628Z,0.00
2023-02-15T05:00:53.622Z,0.00
2023-02-15T05:01:53.608Z,0.00
2023-02-15T05:02:54.497Z,0.00
2023-02-15T05:03:53.623Z,0.00
2023-02-15T05:04:53.568Z,0.00
2023-02-15T05:05:53.556Z,0.00
2023-02-15T05:06:53.530Z,0.00
2023-02-15T05:07:54.443Z,0.00
2023-02-15T05:08:53.541Z,0.00
2023-02-15T05:09:53.508Z,0.00
2023-02-15T05:10:53.462Z,0.00
2023-02-15T05:11:53.563Z,0.00
2023-02-15T05:12:53.522Z,0.00
2023-02-15T05:13:54.401Z,0.00
2023-02-15T05:14:53.440Z,0.00
2023-02-15T05:15:53.451Z,0.00
2023-02-15T05:16:53.503Z,0.00
2023-02-15T05:17:53.398Z,0.00
2023-02-15T05:18:54.323Z,0.00
2023-02-15T05:19:53.377Z,0.00
2023-02-15T05:20:53.380Z,0.00
2023-02-15T05:21:53.332Z,0.00
2023-02-15T05:22:53.311Z,0.00
2023-02-15T05:23:53.323Z,0.00
2023-02-15T05:24:54.257Z,0.00
2023-02-15T05:25:53.295Z,0.00
2023-02-15T05:26:53.298Z,0.00
2023-02-15T05:27:53.279Z,0.00
2023-02-15T05:28:53.258Z,0.00
2023-02-15T05:29:53.406Z,0.00
2023-02-15T05:30:54.295Z,0.00
2023-02-15T05:31:53.362Z,0.00
2023-02-15T05:32:53.276Z,0.00
2023-02-15T05:33:53.207Z,0.00
2023-02-15T05:34:54.338Z,0.00
2023-02-15T05:35:54.107Z,0.00
2023-02-15T05:36:53.209Z,0.00
2023-02-15T05:37:53.126Z,0.00
2023-02-15T05:38:53.107Z,0.00
2023-02-15T05:39:53.115Z,0.00
2023-02-15T05:40:53.084Z,0.00
2023-02-15T05:41:54.033Z,0.00
2023-02-15T05:42:53.071Z,0.00
2023-02-15T05:43:53.074Z,0.00
2023-02-15T05:44:53.034Z,0.00
2023-02-15T05:45:53.073Z,0.00
2023-02-15T05:46:53.027Z,0.00
2023-02-15T05:47:53.940Z,0.00
2023-02-15T05:48:53.003Z,0.00
2023-02-15T05:49:52.994Z,0.00
2023-02-15T05:50:52.989Z,4.00
2023-02-15T05:51:52.969Z,0.00
2023-02-15T05:52:53.879Z,0.00
2023-02-15T05:53:52.963Z,4.00
2023-02-15T05:54:52.916Z,0.00
2023-02-15T05:55:52.917Z,4.00
2023-02-15T05:56:52.916Z,4.00
2023-02-15T05:57:52.873Z,4.00
2023-02-15T05:58:53.827Z,4.00
2023-02-15T05:59:52.876Z,8.00
2023-02-15T06:00:52.823Z,8.00
2023-02-15T06:01:52.823Z,8.00
2023-02-15T06:02:52.838Z,8.00
2023-02-15T06:03:53.792Z,12.00
2023-02-15T06:04:52.775Z,12.00
2023-02-15T06:05:52.785Z,16.00
2023-02-15T06:06:53.211Z,20.00
2023-02-15T06:07:52.755Z,20.00
2023-02-15T06:08:53.697Z,24.00
2023-02-15T06:09:52.760Z,28.00
2023-02-15T06:10:52.737Z,36.00
2023-02-15T06:11:52.701Z,40.00
2023-02-15T06:12:52.693Z,40.00
2023-02-15T06:13:53.619Z,48.00
2023-02-15T06:14:52.677Z,56.00
2023-02-15T06:15:52.897Z,60.00
2023-02-15T06:16:52.680Z,72.00
2023-02-15T06:17:52.634Z,80.00
2023-02-15T06:18:53.795Z,84.00
2023-02-15T06:19:53.531Z,92.00
2023-02-15T06:20:52.582Z,100.00
2023-02-15T06:21:52.592Z,112.00
2023-02-15T06:22:52.576Z,124.00
2023-02-15T06:23:52.570Z,128.00
2023-02-15T06:24:53.473Z,136.00
2023-02-15T06:25:52.559Z,152.00
2023-02-15T06:26:52.501Z,164.00
2023-02-15T06:27:52.695Z,172.00
2023-02-15T06:28:52.491Z,188.00
2023-02-15T06:29:52.559Z,192.00
2023-02-15T06:30:53.507Z,208.00
2023-02-15T06:31:52.616Z,220.00
2023-02-15T06:32:52.427Z,244.00
2023-02-15T06:33:52.439Z,252.00
2023-02-15T06:34:52.404Z,264.00
2023-02-15T06:35:53.385Z,284.00
2023-02-15T06:36:52.388Z,288.00
2023-02-15T06:37:52.372Z,296.00
2023-02-15T06:38:52.348Z,312.00
2023-02-15T06:39:52.363Z,328.00
2023-02-15T06:40:53.306Z,344.00
2023-02-15T06:41:52.358Z,372.00
2023-02-15T06:42:52.357Z,392.00
2023-02-15T06:43:52.311Z,424.00
2023-02-15T06:44:52.266Z,428.00
2023-02-15T06:45:52.274Z,460.00
2023-02-15T06:46:53.229Z,472.00
2023-02-15T06:47:52.249Z,504.00
2023-02-15T06:48:52.236Z,512.00
2023-02-15T06:49:52.230Z,540.00
2023-02-15T06:50:52.218Z,588.00
2023-02-15T06:51:53.142Z,572.00
2023-02-15T06:52:52.180Z,608.00
2023-02-15T06:53:52.167Z,616.00
2023-02-15T06:54:52.166Z,648.00
2023-02-15T06:55:52.149Z,652.00
2023-02-15T06:56:52.173Z,684.00
2023-02-15T06:57:53.054Z,708.00
2023-02-15T06:58:52.105Z,708.00
2023-02-15T06:59:52.119Z,716.00
2023-02-15T07:00:52.098Z,736.00
2023-02-15T07:01:52.141Z,772.00
2023-02-15T07:02:52.108Z,800.00
2023-02-15T07:03:52.993Z,792.00
2023-02-15T07:04:52.125Z,812.00
2023-02-15T07:05:52.013Z,852.00
2023-02-15T07:06:53.926Z,880.00
2023-02-15T07:07:52.002Z,920.00
2023-02-15T07:08:52.033Z,912.00
2023-02-15T07:09:52.922Z,932.00
2023-02-15T07:10:51.938Z,952.00
2023-02-15T07:11:51.953Z,980.00
2023-02-15T07:12:52.020Z,1012.00
2023-02-15T07:13:51.910Z,1064.00
2023-02-15T07:14:52.852Z,1128.00
2023-02-15T07:15:51.903Z,1164.00
2023-02-15T07:16:51.874Z,1172.00
2023-02-15T07:17:51.863Z,1132.00
2023-02-15T07:18:51.877Z,1156.00
2023-02-15T07:19:51.835Z,1300.00
2023-02-15T07:20:52.755Z,1316.00
2023-02-15T07:22:50.940Z,1356.00
2023-02-15T07:23:50.932Z,1396.00
2023-02-15T07:24:50.889Z,1464.00
2023-02-15T07:25:50.869Z,1460.00
2023-02-15T07:26:51.777Z,1472.00
2023-02-15T07:27:50.844Z,1468.00
2023-02-15T07:28:50.838Z,1484.00
2023-02-15T07:29:50.863Z,1504.00
2023-02-15T07:30:50.827Z,1656.00
2023-02-15T07:31:50.801Z,1564.00
2023-02-15T07:32:51.702Z,1816.00
2023-02-15T07:33:50.773Z,1756.00
2023-02-15T07:34:50.862Z,1728.00
2023-02-15T07:35:50.763Z,1648.00
2023-02-15T07:36:50.732Z,1720.00
2023-02-15T07:37:51.663Z,1888.00
2023-02-15T07:38:50.736Z,1756.00
2023-02-15T07:39:50.696Z,1968.00
2023-02-15T07:40:50.698Z,1812.00
2023-02-15T07:41:50.676Z,1948.00
2023-02-15T07:42:52.204Z,1748.00
2023-02-15T07:43:51.600Z,2012.00
2023-02-15T07:44:50.642Z,1872.00
2023-02-15T07:45:50.630Z,2020.00
2023-02-15T07:46:50.703Z,2040.00
2023-02-15T07:47:50.626Z,2148.00
2023-02-15T07:48:50.584Z,2032.00
2023-02-15T07:49:56.839Z,2144.00
2023-02-15T07:50:50.561Z,2032.00
2023-02-15T07:51:50.598Z,1980.00
2023-02-15T07:52:50.548Z,2144.00
2023-02-15T07:53:50.514Z,2220.00
2023-02-15T07:54:51.420Z,2340.00
2023-02-15T07:55:50.508Z,2472.00
2023-02-15T07:56:50.501Z,2180.00
2023-02-15T07:57:50.499Z,2260.00
2023-02-15T07:58:50.473Z,2372.00
2023-02-15T07:59:50.497Z,2408.00
2023-02-15T08:00:51.436Z,2344.00
2023-02-15T08:01:50.479Z,2388.00
2023-02-15T08:02:50.429Z,2348.00
2023-02-15T08:03:50.595Z,2428.00
2023-02-15T08:04:50.467Z,2464.00
2023-02-15T08:05:51.328Z,2516.00
2023-02-15T08:06:50.420Z,2508.00
2023-02-15T08:07:50.340Z,2620.00
2023-02-15T08:08:50.351Z,2472.00
2023-02-15T08:09:50.307Z,2608.00
2023-02-15T08:10:50.301Z,2668.00
2023-02-15T08:11:56.599Z,2708.00
2023-02-15T08:12:50.267Z,2580.00
2023-02-15T08:13:50.342Z,2612.00
2023-02-15T08:14:50.241Z,2740.00
2023-02-15T08:15:50.242Z,2704.00
2023-02-15T08:16:50.414Z,2884.00
2023-02-15T08:17:51.232Z,2924.00
2023-02-15T08:18:50.190Z,2852.00
2023-02-15T08:19:50.211Z,2764.00
2023-02-15T08:20:50.182Z,3008.00
2023-02-15T08:21:50.227Z,2832.00
2023-02-15T08:22:50.157Z,3184.00
2023-02-15T08:23:56.383Z,3344.00
2023-02-15T08:24:50.145Z,3308.00
2023-02-15T08:25:50.100Z,3396.00
2023-02-15T08:26:50.101Z,3292.00
2023-02-15T08:27:50.110Z,3196.00
2023-02-15T08:28:51.002Z,3452.00
2023-02-15T08:29:50.106Z,3188.00
2023-02-15T08:30:50.120Z,3260.00
2023-02-15T08:31:50.165Z,3492.00
2023-02-15T08:32:50.012Z,3056.00
2023-02-15T08:33:56.270Z,3304.00
2023-02-15T08:34:49.999Z,3520.00
2023-02-15T08:35:50.006Z,3672.00
2023-02-15T08:36:50.005Z,3668.00
2023-02-15T08:37:49.979Z,3720.00
2023-02-15T08:38:49.963Z,3764.00
2023-02-15T08:39:50.926Z,3720.00
2023-02-15T08:40:49.912Z,3716.00
2023-02-15T08:41:49.901Z,3668.00
2023-02-15T08:42:49.906Z,3704.00
2023-02-15T08:43:49.873Z,3712.00
2023-02-15T08:44:50.474Z,4268.00
2023-02-15T08:45:56.167Z,4008.00
2023-02-15T08:46:49.907Z,4316.00
2023-02-15T08:47:49.841Z,4276.00
2023-02-15T08:48:49.844Z,4520.00
2023-02-15T08:49:49.805Z,5508.00
2023-02-15T08:50:50.732Z,5080.00
2023-02-15T08:51:49.827Z,4396.00
2023-02-15T08:52:49.784Z,4700.00
2023-02-15T08:53:49.775Z,4740.00
2023-02-15T08:54:49.755Z,5348.00
2023-02-15T08:55:50.710Z,4380.00
2023-02-15T08:56:49.806Z,5052.00
2023-02-15T08:57:49.723Z,5712.00
2023-02-15T08:58:49.710Z,4852.00
2023-02-15T08:59:49.690Z,4880.00
2023-02-15T09:00:49.705Z,4628.00
2023-02-15T09:01:50.649Z,5172.00
2023-02-15T09:02:49.643Z,4708.00
2023-02-15T09:03:49.628Z,5440.00
2023-02-15T09:04:49.621Z,5904.00
2023-02-15T09:05:49.621Z,5328.00
2023-02-15T09:06:49.642Z,5492.00
2023-02-15T09:07:50.583Z,5416.00
2023-02-15T09:08:49.571Z,4436.00
2023-02-15T09:09:49.638Z,5120.00
2023-02-15T09:10:49.561Z,5464.00
2023-02-15T09:11:50.345Z,6160.00
2023-02-15T09:12:50.467Z,5256.00
2023-02-15T09:13:49.517Z,5876.00
2023-02-15T09:14:49.496Z,6080.00
2023-02-15T09:15:49.477Z,5736.00
2023-02-15T09:16:49.758Z,5716.00
2023-02-15T09:17:49.453Z,6012.00
2023-02-15T09:18:50.378Z,6404.00
2023-02-15T09:19:49.466Z,5436.00
2023-02-15T09:20:49.419Z,5540.00
2023-02-15T09:21:49.453Z,6356.00
2023-02-15T09:22:49.380Z,6448.00
2023-02-15T09:23:49.375Z,5864.00
2023-02-15T09:24:50.340Z,6236.00
2023-02-15T09:25:49.344Z,6348.00
2023-02-15T09:26:49.414Z,6512.00
2023-02-15T09:27:49.325Z,6388.00
2023-02-15T09:28:49.296Z,6592.00
2023-02-15T09:29:50.289Z,6548.00
2023-02-15T09:30:49.292Z,6936.00
2023-02-15T09:31:49.301Z,6568.00
2023-02-15T09:32:49.321Z,6240.00
2023-02-15T09:33:49.232Z,6804.00
2023-02-15T09:34:49.227Z,6232.00
2023-02-15T09:35:50.162Z,7492.00
2023-02-15T09:36:49.284Z,7448.00
2023-02-15T09:37:49.194Z,7064.00
2023-02-15T09:38:49.169Z,7828.00
2023-02-15T09:39:49.295Z,6388.00
2023-02-15T09:40:50.099Z,7864.00
2023-02-15T09:41:49.123Z,7164.00
2023-02-15T09:42:49.136Z,7940.00
2023-02-15T09:43:49.113Z,7424.00
2023-02-15T09:44:49.082Z,7912.00
2023-02-15T09:45:49.074Z,7668.00
2023-02-15T09:46:49.984Z,7280.00
2023-02-15T09:47:49.066Z,6332.00
2023-02-15T09:48:49.080Z,7428.00
2023-02-15T09:49:49.040Z,7340.00
2023-02-15T09:50:49.040Z,8944.00
2023-02-15T09:51:48.979Z,7616.00
2023-02-15T09:52:49.916Z,7344.00
2023-02-15T09:53:48.981Z,8112.00
2023-02-15T09:54:48.981Z,8856.00
2023-02-15T09:55:48.986Z,8680.00
2023-02-15T09:56:48.964Z,6940.00
2023-02-15T09:57:49.869Z,7564.00
2023-02-15T09:58:48.924Z,8880.00
2023-02-15T09:59:48.897Z,9708.00
2023-02-15T10:00:48.926Z,9752.00
2023-02-15T10:01:48.963Z,8352.00
2023-02-15T10:02:48.851Z,9208.00
2023-02-15T10:03:49.786Z,7564.00
2023-02-15T10:04:48.867Z,6732.00
2023-02-15T10:05:48.824Z,6852.00
2023-02-15T10:06:48.838Z,7728.00
2023-02-15T10:07:48.784Z,9740.00
2023-02-15T10:08:48.780Z,7756.00
2023-02-15T10:09:49.744Z,8968.00
2023-02-15T10:10:48.764Z,9356.00
2023-02-15T10:11:48.770Z,8988.00
2023-02-15T10:12:48.732Z,9196.00
2023-02-15T10:13:48.728Z,8936.00
2023-02-15T10:14:49.627Z,8360.00
2023-02-15T10:15:48.701Z,8016.00
2023-02-15T10:16:48.757Z,7940.00
2023-02-15T10:17:48.676Z,7852.00
2023-02-15T10:18:48.675Z,11424.00
2023-02-15T10:19:49.593Z,10672.00
2023-02-15T10:20:48.683Z,7812.00
2023-02-15T10:21:48.611Z,7192.00
2023-02-15T10:22:48.592Z,8036.00
2023-02-15T10:23:48.606Z,8288.00
2023-02-15T10:24:49.096Z,9388.00
2023-02-15T10:25:49.484Z,9280.00
2023-02-15T10:26:48.578Z,8168.00
2023-02-15T10:27:48.570Z,7360.00
2023-02-15T10:28:48.556Z,7716.00
2023-02-15T10:29:48.511Z,7040.00
2023-02-15T10:30:48.593Z,9432.00
2023-02-15T10:31:49.557Z,10296.00
2023-02-15T10:32:48.500Z,9872.00
2023-02-15T10:33:48.482Z,9644.00
2023-02-15T10:34:48.472Z,8772.00
2023-02-15T10:35:48.455Z,9492.00
2023-02-15T10:36:49.374Z,9388.00
2023-02-15T10:37:48.398Z,9676.00
2023-02-15T10:38:48.397Z,9688.00
2023-02-15T10:39:48.416Z,10304.00
2023-02-15T10:40:48.393Z,10096.00
2023-02-15T10:41:49.300Z,10276.00
2023-02-15T10:42:48.378Z,10204.00
2023-02-15T10:43:48.339Z,9964.00
2023-02-15T10:44:48.342Z,10332.00
2023-02-15T10:45:48.340Z,10360.00
2023-02-15T10:46:49.220Z,10192.00
2023-02-15T10:47:48.301Z,9960.00
2023-02-15T10:48:48.260Z,9948.00
2023-02-15T10:49:48.316Z,10296.00
2023-02-15T10:50:48.253Z,10408.00
2023-02-15T10:51:49.241Z,10432.00
2023-02-15T10:52:48.229Z,10436.00
2023-02-15T10:53:48.223Z,10272.00
2023-02-15T10:54:48.214Z,10548.00
2023-02-15T10:55:48.274Z,10656.00
2023-02-15T10:56:48.167Z,10444.00
2023-02-15T10:57:49.107Z,10492.00
2023-02-15T10:58:48.188Z,10536.00
2023-02-15T10:59:48.140Z,10488.00
2023-02-15T11:00:48.128Z,10512.00
2023-02-15T11:01:48.146Z,10680.00
2023-02-15T11:02:48.083Z,10680.00
2023-02-15T11:03:49.056Z,10560.00
2023-02-15T11:04:48.148Z,10508.00
2023-02-15T11:05:48.070Z,10604.00
2023-02-15T11:06:48.038Z,10748.00
2023-02-15T11:07:48.030Z,10668.00
2023-02-15T11:08:48.962Z,10844.00
2023-02-15T11:09:48.005Z,10796.00
2023-02-15T11:10:48.088Z,10672.00
2023-02-15T11:11:48.068Z,10812.00
2023-02-15T11:12:47.997Z,10808.00
2023-02-15T11:13:47.950Z,10840.00
2023-02-15T11:14:48.863Z,10776.00
2023-02-15T11:15:47.946Z,10708.00
2023-02-15T11:16:47.953Z,10684.00
2023-02-15T11:17:48.266Z,10828.00
2023-02-15T11:18:47.877Z,10804.00
2023-02-15T11:19:48.800Z,10680.00
2023-02-15T11:20:47.863Z,10800.00
2023-02-15T11:21:47.850Z,10692.00
2023-02-15T11:22:47.840Z,10932.00
2023-02-15T11:23:47.807Z,10856.00
2023-02-15T11:24:48.725Z,11000.00
2023-02-15T11:25:47.804Z,11028.00
2023-02-15T11:26:47.957Z,11088.00
2023-02-15T11:27:47.818Z,11048.00
2023-02-15T11:28:47.747Z,10984.00
2023-02-15T11:29:48.725Z,10956.00
2023-02-15T11:30:47.865Z,10928.00
2023-02-15T11:31:47.799Z,10924.00
2023-02-15T11:32:47.708Z,10892.00
2023-02-15T11:33:47.704Z,10852.00
2023-02-15T11:34:47.691Z,10784.00
2023-02-15T11:35:48.598Z,10864.00
2023-02-15T11:36:47.636Z,10892.00
2023-02-15T11:37:47.664Z,10660.00
2023-02-15T11:38:47.642Z,10700.00
2023-02-15T11:39:47.620Z,10640.00
2023-02-15T11:40:48.539Z,10816.00
2023-02-15T11:41:47.573Z,10828.00
2023-02-15T11:42:47.591Z,10952.00
2023-02-15T11:43:47.556Z,11004.00
2023-02-15T11:44:47.545Z,10916.00
2023-02-15T11:45:48.444Z,10980.00
2023-02-15T11:46:47.556Z,11052.00
2023-02-15T11:47:47.521Z,9616.00
2023-02-15T11:48:47.508Z,11016.00
2023-02-15T11:49:47.594Z,11008.00
2023-02-15T11:50:48.405Z,11028.00
2023-02-15T11:51:47.443Z,11060.00
2023-02-15T11:52:47.444Z,11032.00
2023-02-15T11:53:47.447Z,10932.00
2023-02-15T11:54:47.426Z,10936.00
2023-02-15T11:55:47.419Z,11028.00
2023-02-15T11:56:48.342Z,10980.00
2023-02-15T11:57:47.386Z,10984.00
2023-02-15T11:58:47.531Z,11032.00
2023-02-15T11:59:47.354Z,11084.00
2023-02-15T12:00:47.347Z,10984.00
2023-02-15T12:01:47.320Z,11024.00
2023-02-15T12:02:48.276Z,11012.00
2023-02-15T12:03:47.412Z,11008.00
2023-02-15T12:04:47.296Z,11052.00
2023-02-15T12:05:47.293Z,10944.00
2023-02-15T12:06:47.268Z,10952.00
2023-02-15T12:07:48.191Z,10992.00
2023-02-15T12:08:47.404Z,11024.00
2023-02-15T12:09:47.221Z,11000.00
2023-02-15T12:10:47.229Z,10964.00
2023-02-15T12:11:47.205Z,11068.00
2023-02-15T12:12:48.109Z,11068.00
2023-02-15T12:13:47.161Z,11008.00
2023-02-15T12:14:47.150Z,11008.00
2023-02-15T12:15:47.219Z,10904.00
2023-02-15T12:16:47.167Z,10960.00
2023-02-15T12:17:47.223Z,10984.00
2023-02-15T12:18:48.033Z,10976.00
2023-02-15T12:19:47.083Z,11020.00
2023-02-15T12:20:47.076Z,11040.00
2023-02-15T12:21:47.080Z,11048.00
2023-02-15T12:22:47.047Z,11072.00
2023-02-15T12:23:47.972Z,11020.00
2023-02-15T12:24:47.021Z,10944.00
2023-02-15T12:25:46.997Z,10932.00
2023-02-15T12:26:47.016Z,10836.00
2023-02-15T12:27:47.006Z,10752.00
2023-02-15T12:28:46.964Z,10712.00
2023-02-15T12:29:47.874Z,10276.00
2023-02-15T12:30:46.951Z,10908.00
2023-02-15T12:31:47.031Z,10192.00
2023-02-15T12:32:46.936Z,10720.00
2023-02-15T12:33:46.903Z,10964.00
2023-02-15T12:34:47.823Z,10996.00
2023-02-15T12:35:46.862Z,11004.00
2023-02-15T12:36:46.855Z,11040.00
2023-02-15T12:37:46.881Z,11016.00
2023-02-15T12:38:46.833Z,10996.00
2023-02-15T12:39:46.815Z,11084.00